sensor_id;sensor_type;location;lat;lon;timestamp;P1;durP1;ratioP1;P2;durP2;ratioP2
71360;SDS011;59166;48.908;1.870;2023-04-03T00:04:35;29.48;;;11.90;;
71360;SDS011;59166;48.908;1.870;2023-04-03T00:09:36;31.93;;;12.47;;
71360;SDS011;59166;48.908;1.870;2023-04-03T00:14:38;32.97;;;12.88;;
71360;SDS011;59166;48.908;1.870;2023-04-03T00:19:39;29.48;;;12.38;;
71360;SDS011;59166;48.908;1.870;2023-04-03T00:24:40;27.30;;;12.47;;
71360;SDS011;59166;48.908;1.870;2023-04-03T00:29:43;27.33;;;11.52;;
71360;SDS011;59166;48.908;1.870;2023-04-03T00:34:43;22.00;;;8.70;;
71360;SDS011;59166;48.908;1.870;2023-04-03T00:39:44;27.87;;;11.57;;
71360;SDS011;59166;48.908;1.870;2023-04-03T00:50:30;21.43;;;8.83;;
71360;SDS011;59166;48.908;1.870;2023-04-03T00:55:32;23.00;;;9.52;;
71360;SDS011;59166;48.908;1.870;2023-04-03T01:00:36;24.70;;;9.88;;
71360;SDS011;59166;48.908;1.870;2023-04-03T01:05:41;23.53;;;10.00;;
71360;SDS011;59166;48.908;1.870;2023-04-03T01:10:43;26.33;;;10.37;;
71360;SDS011;59166;48.908;1.870;2023-04-03T01:15:43;25.52;;;10.25;;
71360;SDS011;59166;48.908;1.870;2023-04-03T01:26:31;23.33;;;10.15;;
71360;SDS011;59166;48.908;1.870;2023-04-03T01:31:43;26.67;;;10.75;;
71360;SDS011;59166;48.908;1.870;2023-04-03T01:36:46;23.27;;;9.37;;
71360;SDS011;59166;48.908;1.870;2023-04-03T01:41:47;27.13;;;10.83;;
71360;SDS011;59166;48.908;1.870;2023-04-03T01:46:49;24.02;;;9.75;;
71360;SDS011;59166;48.908;1.870;2023-04-03T01:51:50;24.20;;;10.30;;
71360;SDS011;59166;48.908;1.870;2023-04-03T01:56:51;25.08;;;9.98;;
71360;SDS011;59166;48.908;1.870;2023-04-03T02:01:53;25.63;;;10.10;;
71360;SDS011;59166;48.908;1.870;2023-04-03T02:06:53;25.10;;;10.73;;
71360;SDS011;59166;48.908;1.870;2023-04-03T02:11:54;22.63;;;9.63;;
71360;SDS011;59166;48.908;1.870;2023-04-03T02:16:56;24.27;;;9.97;;
71360;SDS011;59166;48.908;1.870;2023-04-03T02:21:57;23.50;;;9.80;;
71360;SDS011;59166;48.908;1.870;2023-04-03T02:26:57;20.03;;;8.27;;
71360;SDS011;59166;48.908;1.870;2023-04-03T02:32:00;20.45;;;8.02;;
71360;SDS011;59166;48.908;1.870;2023-04-03T02:37:00;20.47;;;8.73;;
71360;SDS011;59166;48.908;1.870;2023-04-03T02:42:01;19.50;;;8.25;;
71360;SDS011;59166;48.908;1.870;2023-04-03T02:47:03;16.73;;;6.20;;
71360;SDS011;59166;48.908;1.870;2023-04-03T02:52:04;20.98;;;8.20;;
71360;SDS011;59166;48.908;1.870;2023-04-03T02:57:05;16.80;;;7.13;;
71360;SDS011;59166;48.908;1.870;2023-04-03T03:02:07;18.88;;;7.65;;
71360;SDS011;59166;48.908;1.870;2023-04-03T03:07:08;18.40;;;7.70;;
71360;SDS011;59166;48.908;1.870;2023-04-03T03:12:09;15.90;;;6.43;;
71360;SDS011;59166;48.908;1.870;2023-04-03T03:17:11;18.13;;;7.70;;
71360;SDS011;59166;48.908;1.870;2023-04-03T03:22:11;17.20;;;7.35;;
71360;SDS011;59166;48.908;1.870;2023-04-03T03:27:12;15.43;;;6.70;;
71360;SDS011;59166;48.908;1.870;2023-04-03T03:32:14;18.77;;;6.90;;
71360;SDS011;59166;48.908;1.870;2023-04-03T03:37:15;16.60;;;6.60;;
71360;SDS011;59166;48.908;1.870;2023-04-03T03:42:15;15.77;;;6.27;;
71360;SDS011;59166;48.908;1.870;2023-04-03T03:47:17;15.98;;;6.45;;
71360;SDS011;59166;48.908;1.870;2023-04-03T03:52:18;17.77;;;6.67;;
71360;SDS011;59166;48.908;1.870;2023-04-03T03:57:19;15.48;;;6.30;;
71360;SDS011;59166;48.908;1.870;2023-04-03T04:02:21;15.60;;;6.30;;
71360;SDS011;59166;48.908;1.870;2023-04-03T04:07:21;15.40;;;6.80;;
71360;SDS011;59166;48.908;1.870;2023-04-03T04:12:22;15.37;;;6.10;;
71360;SDS011;59166;48.908;1.870;2023-04-03T04:17:24;15.80;;;6.50;;
71360;SDS011;59166;48.908;1.870;2023-04-03T04:22:25;14.70;;;6.40;;
71360;SDS011;59166;48.908;1.870;2023-04-03T04:27:25;15.70;;;6.63;;
71360;SDS011;59166;48.908;1.870;2023-04-03T04:32:27;16.90;;;7.80;;
71360;SDS011;59166;48.908;1.870;2023-04-03T04:37:28;18.20;;;7.63;;
71360;SDS011;59166;48.908;1.870;2023-04-03T04:42:28;17.43;;;7.07;;
71360;SDS011;59166;48.908;1.870;2023-04-03T04:47:30;15.57;;;6.43;;
71360;SDS011;59166;48.908;1.870;2023-04-03T04:52:31;17.47;;;8.03;;
71360;SDS011;59166;48.908;1.870;2023-04-03T04:57:32;17.63;;;7.35;;
71360;SDS011;59166;48.908;1.870;2023-04-03T05:02:34;17.27;;;7.30;;
71360;SDS011;59166;48.908;1.870;2023-04-03T05:07:34;19.10;;;8.35;;
71360;SDS011;59166;48.908;1.870;2023-04-03T05:12:35;18.40;;;8.30;;
71360;SDS011;59166;48.908;1.870;2023-04-03T05:17:37;19.70;;;8.10;;
71360;SDS011;59166;48.908;1.870;2023-04-03T05:22:38;19.00;;;8.77;;
71360;SDS011;59166;48.908;1.870;2023-04-03T05:27:38;18.13;;;8.43;;
71360;SDS011;59166;48.908;1.870;2023-04-03T05:32:40;19.88;;;8.40;;
71360;SDS011;59166;48.908;1.870;2023-04-03T05:37:41;18.57;;;8.30;;
71360;SDS011;59166;48.908;1.870;2023-04-03T05:42:42;18.20;;;8.60;;
71360;SDS011;59166;48.908;1.870;2023-04-03T05:47:44;20.77;;;8.63;;
71360;SDS011;59166;48.908;1.870;2023-04-03T05:52:45;19.63;;;8.55;;
71360;SDS011;59166;48.908;1.870;2023-04-03T05:57:48;20.70;;;9.13;;
71360;SDS011;59166;48.908;1.870;2023-04-03T06:02:50;19.77;;;8.53;;
71360;SDS011;59166;48.908;1.870;2023-04-03T06:07:51;19.67;;;8.57;;
71360;SDS011;59166;48.908;1.870;2023-04-03T06:12:52;19.53;;;8.53;;
71360;SDS011;59166;48.908;1.870;2023-04-03T06:17:54;17.63;;;7.53;;
71360;SDS011;59166;48.908;1.870;2023-04-03T06:22:55;8.07;;;2.88;;
71360;SDS011;59166;48.908;1.870;2023-04-03T06:27:55;18.23;;;8.10;;
71360;SDS011;59166;48.908;1.870;2023-04-03T06:32:57;17.75;;;8.55;;
71360;SDS011;59166;48.908;1.870;2023-04-03T06:37:58;20.57;;;8.97;;
71360;SDS011;59166;48.908;1.870;2023-04-03T06:42:59;18.70;;;8.60;;
71360;SDS011;59166;48.908;1.870;2023-04-03T06:48:01;21.00;;;9.13;;
71360;SDS011;59166;48.908;1.870;2023-04-03T06:53:02;19.90;;;8.83;;
71360;SDS011;59166;48.908;1.870;2023-04-03T06:58:02;18.00;;;8.73;;
71360;SDS011;59166;48.908;1.870;2023-04-03T07:03:05;19.20;;;9.18;;
71360;SDS011;59166;48.908;1.870;2023-04-03T07:08:06;18.40;;;8.53;;
71360;SDS011;59166;48.908;1.870;2023-04-03T07:13:06;18.55;;;7.32;;
71360;SDS011;59166;48.908;1.870;2023-04-03T07:18:08;18.40;;;7.97;;
71360;SDS011;59166;48.908;1.870;2023-04-03T07:23:09;20.20;;;9.32;;
71360;SDS011;59166;48.908;1.870;2023-04-03T07:28:10;22.50;;;9.90;;
71360;SDS011;59166;48.908;1.870;2023-04-03T07:33:12;20.00;;;9.63;;
71360;SDS011;59166;48.908;1.870;2023-04-03T07:38:14;19.15;;;8.75;;
71360;SDS011;59166;48.908;1.870;2023-04-03T07:43:15;18.80;;;8.57;;
71360;SDS011;59166;48.908;1.870;2023-04-03T07:48:17;16.45;;;8.00;;
71360;SDS011;59166;48.908;1.870;2023-04-03T07:53:20;19.67;;;8.20;;
71360;SDS011;59166;48.908;1.870;2023-04-03T07:58:20;19.77;;;8.48;;
71360;SDS011;59166;48.908;1.870;2023-04-03T08:03:22;19.20;;;8.30;;
71360;SDS011;59166;48.908;1.870;2023-04-03T08:08:23;17.40;;;8.30;;
71360;SDS011;59166;48.908;1.870;2023-04-03T08:13:24;16.27;;;6.10;;
71360;SDS011;59166;48.908;1.870;2023-04-03T08:18:26;14.77;;;6.40;;
71360;SDS011;59166;48.908;1.870;2023-04-03T08:23:26;17.63;;;7.25;;
71360;SDS011;59166;48.908;1.870;2023-04-03T08:28:27;19.00;;;7.80;;
71360;SDS011;59166;48.908;1.870;2023-04-03T08:33:29;16.88;;;7.45;;
71360;SDS011;59166;48.908;1.870;2023-04-03T08:38:29;15.90;;;7.30;;
71360;SDS011;59166;48.908;1.870;2023-04-03T08:43:31;14.37;;;6.93;;
71360;SDS011;59166;48.908;1.870;2023-04-03T08:48:43;14.47;;;6.43;;
71360;SDS011;59166;48.908;1.870;2023-04-03T08:53:54;14.07;;;6.03;;
71360;SDS011;59166;48.908;1.870;2023-04-03T08:59:00;12.93;;;6.20;;
71360;SDS011;59166;48.908;1.870;2023-04-03T09:04:09;7.67;;;2.80;;
71360;SDS011;59166;48.908;1.870;2023-04-03T09:09:12;11.35;;;4.60;;
71360;SDS011;59166;48.908;1.870;2023-04-03T09:14:16;10.50;;;4.97;;
71360;SDS011;59166;48.908;1.870;2023-04-03T09:19:28;12.00;;;5.80;;
71360;SDS011;59166;48.908;1.870;2023-04-03T09:24:36;9.05;;;3.78;;
71360;SDS011;59166;48.908;1.870;2023-04-03T09:29:39;11.90;;;4.63;;
71360;SDS011;59166;48.908;1.870;2023-04-03T09:34:42;10.90;;;4.87;;
71360;SDS011;59166;48.908;1.870;2023-04-03T09:39:48;12.10;;;5.37;;
71360;SDS011;59166;48.908;1.870;2023-04-03T09:44:53;11.98;;;5.63;;
71360;SDS011;59166;48.908;1.870;2023-04-03T09:50:10;8.23;;;3.22;;
71360;SDS011;59166;48.908;1.870;2023-04-03T09:55:19;11.37;;;4.47;;
71360;SDS011;59166;48.908;1.870;2023-04-03T10:00:22;10.43;;;4.47;;
71360;SDS011;59166;48.908;1.870;2023-04-03T10:05:28;9.57;;;4.20;;
71360;SDS011;59166;48.908;1.870;2023-04-03T10:10:32;9.53;;;4.50;;
71360;SDS011;59166;48.908;1.870;2023-04-03T10:15:34;6.32;;;2.30;;
71360;SDS011;59166;48.908;1.870;2023-04-03T10:20:42;10.27;;;4.70;;
71360;SDS011;59166;48.908;1.870;2023-04-03T10:25:46;10.70;;;4.60;;
71360;SDS011;59166;48.908;1.870;2023-04-03T10:30:56;9.40;;;4.35;;
71360;SDS011;59166;48.908;1.870;2023-04-03T10:36:05;7.95;;;3.60;;
71360;SDS011;59166;48.908;1.870;2023-04-03T10:41:14;9.23;;;3.70;;
71360;SDS011;59166;48.908;1.870;2023-04-03T10:46:19;9.80;;;4.07;;
71360;SDS011;59166;48.908;1.870;2023-04-03T10:51:29;8.80;;;3.42;;
71360;SDS011;59166;48.908;1.870;2023-04-03T10:56:38;8.17;;;3.30;;
71360;SDS011;59166;48.908;1.870;2023-04-03T11:01:43;8.13;;;3.58;;
71360;SDS011;59166;48.908;1.870;2023-04-03T11:06:47;8.63;;;3.67;;
71360;SDS011;59166;48.908;1.870;2023-04-03T11:11:52;7.37;;;3.27;;
71360;SDS011;59166;48.908;1.870;2023-04-03T11:16:59;8.70;;;3.73;;
71360;SDS011;59166;48.908;1.870;2023-04-03T11:22:10;9.00;;;4.20;;
71360;SDS011;59166;48.908;1.870;2023-04-03T11:27:17;8.10;;;3.70;;
71360;SDS011;59166;48.908;1.870;2023-04-03T11:32:26;7.50;;;3.37;;
71360;SDS011;59166;48.908;1.870;2023-04-03T11:37:40;8.77;;;3.90;;
71360;SDS011;59166;48.908;1.870;2023-04-03T11:42:46;8.50;;;3.75;;
71360;SDS011;59166;48.908;1.870;2023-04-03T11:47:48;7.10;;;2.90;;
71360;SDS011;59166;48.908;1.870;2023-04-03T11:52:56;8.02;;;3.78;;
71360;SDS011;59166;48.908;1.870;2023-04-03T11:58:09;4.55;;;1.92;;
71360;SDS011;59166;48.908;1.870;2023-04-03T12:03:32;8.10;;;3.67;;
71360;SDS011;59166;48.908;1.870;2023-04-03T12:08:52;6.60;;;2.70;;
71360;SDS011;59166;48.908;1.870;2023-04-03T12:14:03;8.63;;;3.30;;
71360;SDS011;59166;48.908;1.870;2023-04-03T12:19:24;7.40;;;2.85;;
71360;SDS011;59166;48.908;1.870;2023-04-03T12:24:33;8.57;;;2.80;;
71360;SDS011;59166;48.908;1.870;2023-04-03T12:29:34;8.20;;;3.00;;
71360;SDS011;59166;48.908;1.870;2023-04-03T12:34:46;7.40;;;2.78;;
71360;SDS011;59166;48.908;1.870;2023-04-03T12:40:03;7.77;;;2.83;;
71360;SDS011;59166;48.908;1.870;2023-04-03T12:45:12;6.78;;;2.47;;
71360;SDS011;59166;48.908;1.870;2023-04-03T12:50:21;6.82;;;2.72;;
71360;SDS011;59166;48.908;1.870;2023-04-03T12:55:25;6.07;;;2.23;;
71360;SDS011;59166;48.908;1.870;2023-04-03T13:00:30;8.13;;;2.80;;
71360;SDS011;59166;48.908;1.870;2023-04-03T13:05:35;5.03;;;1.75;;
71360;SDS011;59166;48.908;1.870;2023-04-03T13:10:49;6.95;;;2.78;;
71360;SDS011;59166;48.908;1.870;2023-04-03T13:15:54;7.20;;;2.63;;
71360;SDS011;59166;48.908;1.870;2023-04-03T13:21:01;7.97;;;2.45;;
71360;SDS011;59166;48.908;1.870;2023-04-03T13:26:06;7.07;;;2.38;;
71360;SDS011;59166;48.908;1.870;2023-04-03T13:31:14;7.20;;;2.60;;
71360;SDS011;59166;48.908;1.870;2023-04-03T13:36:20;6.63;;;2.30;;
71360;SDS011;59166;48.908;1.870;2023-04-03T13:41:25;7.63;;;2.40;;
71360;SDS011;59166;48.908;1.870;2023-04-03T13:46:30;7.57;;;2.40;;
71360;SDS011;59166;48.908;1.870;2023-04-03T13:51:31;6.63;;;2.53;;
71360;SDS011;59166;48.908;1.870;2023-04-03T13:56:35;6.88;;;2.60;;
71360;SDS011;59166;48.908;1.870;2023-04-03T14:01:41;7.30;;;2.60;;
71360;SDS011;59166;48.908;1.870;2023-04-03T14:06:44;6.30;;;2.20;;
71360;SDS011;59166;48.908;1.870;2023-04-03T14:11:53;6.28;;;2.22;;
71360;SDS011;59166;48.908;1.870;2023-04-03T14:17:00;6.18;;;2.10;;
71360;SDS011;59166;48.908;1.870;2023-04-03T14:22:10;5.83;;;2.37;;
71360;SDS011;59166;48.908;1.870;2023-04-03T14:27:18;6.97;;;2.22;;
71360;SDS011;59166;48.908;1.870;2023-04-03T14:32:23;5.22;;;1.60;;
71360;SDS011;59166;48.908;1.870;2023-04-03T14:37:27;6.47;;;2.33;;
71360;SDS011;59166;48.908;1.870;2023-04-03T14:42:31;7.13;;;2.37;;
71360;SDS011;59166;48.908;1.870;2023-04-03T14:47:34;5.63;;;2.10;;
71360;SDS011;59166;48.908;1.870;2023-04-03T14:52:40;5.93;;;2.05;;
71360;SDS011;59166;48.908;1.870;2023-04-03T14:57:42;7.33;;;2.10;;
71360;SDS011;59166;48.908;1.870;2023-04-03T15:02:44;6.95;;;2.40;;
71360;SDS011;59166;48.908;1.870;2023-04-03T15:07:47;5.95;;;2.10;;
71360;SDS011;59166;48.908;1.870;2023-04-03T15:12:51;5.73;;;2.00;;
71360;SDS011;59166;48.908;1.870;2023-04-03T15:17:53;6.18;;;2.08;;
71360;SDS011;59166;48.908;1.870;2023-04-03T15:22:55;7.93;;;2.30;;
71360;SDS011;59166;48.908;1.870;2023-04-03T15:27:57;5.80;;;2.23;;
71360;SDS011;59166;48.908;1.870;2023-04-03T15:33:02;5.82;;;2.10;;
71360;SDS011;59166;48.908;1.870;2023-04-03T15:38:03;7.45;;;2.20;;
71360;SDS011;59166;48.908;1.870;2023-04-03T15:43:09;6.07;;;2.10;;
71360;SDS011;59166;48.908;1.870;2023-04-03T15:48:11;6.87;;;2.53;;
71360;SDS011;59166;48.908;1.870;2023-04-03T15:53:12;6.28;;;2.47;;
71360;SDS011;59166;48.908;1.870;2023-04-03T15:58:15;7.15;;;2.58;;
71360;SDS011;59166;48.908;1.870;2023-04-03T16:03:20;6.87;;;2.20;;
71360;SDS011;59166;48.908;1.870;2023-04-03T16:08:22;6.60;;;2.15;;
71360;SDS011;59166;48.908;1.870;2023-04-03T16:13:27;5.53;;;2.00;;
71360;SDS011;59166;48.908;1.870;2023-04-03T16:18:28;7.03;;;2.30;;
71360;SDS011;59166;48.908;1.870;2023-04-03T16:23:30;6.18;;;2.22;;
71360;SDS011;59166;48.908;1.870;2023-04-03T16:28:32;7.07;;;2.10;;
71360;SDS011;59166;48.908;1.870;2023-04-03T16:33:33;5.30;;;1.83;;
71360;SDS011;59166;48.908;1.870;2023-04-03T16:38:35;7.90;;;2.00;;
71360;SDS011;59166;48.908;1.870;2023-04-03T16:43:38;5.45;;;2.05;;
71360;SDS011;59166;48.908;1.870;2023-04-03T16:48:39;7.05;;;2.28;;
71360;SDS011;59166;48.908;1.870;2023-04-03T16:53:40;6.37;;;2.10;;
71360;SDS011;59166;48.908;1.870;2023-04-03T16:58:43;10.52;;;4.25;;
71360;SDS011;59166;48.908;1.870;2023-04-03T17:03:44;11.18;;;4.38;;
71360;SDS011;59166;48.908;1.870;2023-04-03T17:08:46;11.07;;;3.47;;
71360;SDS011;59166;48.908;1.870;2023-04-03T17:13:50;8.45;;;2.90;;
71360;SDS011;59166;48.908;1.870;2023-04-03T17:18:51;7.78;;;2.50;;
71360;SDS011;59166;48.908;1.870;2023-04-03T17:23:54;6.70;;;1.87;;
71360;SDS011;59166;48.908;1.870;2023-04-03T17:29:00;7.27;;;2.20;;
71360;SDS011;59166;48.908;1.870;2023-04-03T17:34:01;5.40;;;1.70;;
71360;SDS011;59166;48.908;1.870;2023-04-03T17:39:02;6.25;;;2.05;;
71360;SDS011;59166;48.908;1.870;2023-04-03T17:44:05;6.80;;;2.30;;
71360;SDS011;59166;48.908;1.870;2023-04-03T17:49:07;7.00;;;2.38;;
71360;SDS011;59166;48.908;1.870;2023-04-03T17:54:08;6.57;;;2.42;;
71360;SDS011;59166;48.908;1.870;2023-04-03T17:59:11;6.27;;;2.10;;
71360;SDS011;59166;48.908;1.870;2023-04-03T18:04:12;7.10;;;2.33;;
71360;SDS011;59166;48.908;1.870;2023-04-03T18:09:14;8.50;;;2.30;;
71360;SDS011;59166;48.908;1.870;2023-04-03T18:14:20;7.37;;;2.30;;
71360;SDS011;59166;48.908;1.870;2023-04-03T18:19:22;7.67;;;2.33;;
71360;SDS011;59166;48.908;1.870;2023-04-03T18:24:24;6.07;;;2.40;;
71360;SDS011;59166;48.908;1.870;2023-04-03T18:29:27;6.63;;;2.50;;
71360;SDS011;59166;48.908;1.870;2023-04-03T18:34:31;8.07;;;2.30;;
71360;SDS011;59166;48.908;1.870;2023-04-03T18:39:32;8.43;;;2.90;;
71360;SDS011;59166;48.908;1.870;2023-04-03T18:44:35;8.40;;;2.95;;
71360;SDS011;59166;48.908;1.870;2023-04-03T18:49:38;6.47;;;2.80;;
71360;SDS011;59166;48.908;1.870;2023-04-03T18:54:43;8.10;;;2.80;;
71360;SDS011;59166;48.908;1.870;2023-04-03T18:59:50;9.05;;;3.33;;
71360;SDS011;59166;48.908;1.870;2023-04-03T19:04:53;8.20;;;3.07;;
71360;SDS011;59166;48.908;1.870;2023-04-03T19:09:56;11.70;;;3.10;;
71360;SDS011;59166;48.908;1.870;2023-04-03T19:14:58;8.55;;;3.08;;
71360;SDS011;59166;48.908;1.870;2023-04-03T19:19:59;8.80;;;3.27;;
71360;SDS011;59166;48.908;1.870;2023-04-03T19:25:00;7.57;;;3.20;;
71360;SDS011;59166;48.908;1.870;2023-04-03T19:30:04;10.18;;;3.80;;
71360;SDS011;59166;48.908;1.870;2023-04-03T19:35:06;9.60;;;3.77;;
71360;SDS011;59166;48.908;1.870;2023-04-03T19:40:08;9.95;;;3.88;;
71360;SDS011;59166;48.908;1.870;2023-04-03T19:45:11;8.95;;;3.88;;
71360;SDS011;59166;48.908;1.870;2023-04-03T19:50:13;10.40;;;3.87;;
71360;SDS011;59166;48.908;1.870;2023-04-03T19:55:14;10.10;;;3.80;;
71360;SDS011;59166;48.908;1.870;2023-04-03T20:00:17;11.30;;;4.50;;
71360;SDS011;59166;48.908;1.870;2023-04-03T20:05:18;8.70;;;3.83;;
71360;SDS011;59166;48.908;1.870;2023-04-03T20:10:20;10.57;;;4.17;;
71360;SDS011;59166;48.908;1.870;2023-04-03T20:15:22;12.90;;;4.38;;
71360;SDS011;59166;48.908;1.870;2023-04-03T20:20:23;9.68;;;3.70;;
71360;SDS011;59166;48.908;1.870;2023-04-03T20:25:24;11.70;;;4.50;;
71360;SDS011;59166;48.908;1.870;2023-04-03T20:30:27;8.63;;;3.50;;
71360;SDS011;59166;48.908;1.870;2023-04-03T20:35:30;10.27;;;3.13;;
71360;SDS011;59166;48.908;1.870;2023-04-03T20:40:33;10.87;;;4.37;;
71360;SDS011;59166;48.908;1.870;2023-04-03T20:45:50;9.68;;;3.65;;
71360;SDS011;59166;48.908;1.870;2023-04-03T20:50:53;10.15;;;3.30;;
71360;SDS011;59166;48.908;1.870;2023-04-03T20:55:54;9.83;;;3.70;;
71360;SDS011;59166;48.908;1.870;2023-04-03T21:00:57;10.77;;;3.77;;
71360;SDS011;59166;48.908;1.870;2023-04-03T21:21:38;9.47;;;3.60;;
71360;SDS011;59166;48.908;1.870;2023-04-03T21:26:39;9.80;;;3.80;;
71360;SDS011;59166;48.908;1.870;2023-04-03T21:31:48;9.23;;;3.42;;
71360;SDS011;59166;48.908;1.870;2023-04-03T21:36:51;9.63;;;3.27;;
71360;SDS011;59166;48.908;1.870;2023-04-03T21:41:53;8.55;;;3.20;;
71360;SDS011;59166;48.908;1.870;2023-04-03T21:46:54;9.82;;;3.30;;
71360;SDS011;59166;48.908;1.870;2023-04-03T21:51:57;8.87;;;3.27;;
71360;SDS011;59166;48.908;1.870;2023-04-03T21:56:58;8.87;;;3.30;;
71360;SDS011;59166;48.908;1.870;2023-04-03T22:01:59;10.82;;;3.78;;
71360;SDS011;59166;48.908;1.870;2023-04-03T22:07:02;9.77;;;3.23;;
71360;SDS011;59166;48.908;1.870;2023-04-03T22:12:03;10.98;;;3.35;;
71360;SDS011;59166;48.908;1.870;2023-04-03T22:17:04;11.18;;;3.63;;
71360;SDS011;59166;48.908;1.870;2023-04-03T22:22:07;12.50;;;3.83;;
71360;SDS011;59166;48.908;1.870;2023-04-03T22:27:08;10.75;;;3.40;;
71360;SDS011;59166;48.908;1.870;2023-04-03T22:32:09;9.38;;;3.30;;
71360;SDS011;59166;48.908;1.870;2023-04-03T22:37:11;9.97;;;3.03;;
71360;SDS011;59166;48.908;1.870;2023-04-03T22:42:12;8.82;;;3.10;;
71360;SDS011;59166;48.908;1.870;2023-04-03T22:47:13;9.98;;;3.15;;
71360;SDS011;59166;48.908;1.870;2023-04-03T22:52:15;9.97;;;3.27;;
71360;SDS011;59166;48.908;1.870;2023-04-03T22:57:18;9.30;;;3.30;;
71360;SDS011;59166;48.908;1.870;2023-04-03T23:02:19;10.57;;;3.17;;
71360;SDS011;59166;48.908;1.870;2023-04-03T23:07:21;12.30;;;3.50;;
71360;SDS011;59166;48.908;1.870;2023-04-03T23:12:22;10.98;;;3.60;;
71360;SDS011;59166;48.908;1.870;2023-04-03T23:17:23;13.33;;;3.90;;
71360;SDS011;59166;48.908;1.870;2023-04-03T23:22:25;9.03;;;3.13;;
71360;SDS011;59166;48.908;1.870;2023-04-03T23:27:26;13.57;;;3.60;;
71360;SDS011;59166;48.908;1.870;2023-04-03T23:32:27;10.77;;;3.70;;
71360;SDS011;59166;48.908;1.870;2023-04-03T23:37:29;10.05;;;3.45;;
71360;SDS011;59166;48.908;1.870;2023-04-03T23:42:30;12.03;;;4.43;;
71360;SDS011;59166;48.908;1.870;2023-04-03T23:47:31;11.25;;;4.07;;
71360;SDS011;59166;48.908;1.870;2023-04-03T23:52:33;9.67;;;3.93;;
71360;SDS011;59166;48.908;1.870;2023-04-03T23:57:34;14.05;;;4.15;;
